Main page
METAR-TAF:

METAR-TAF

Airports :

Jizan Regional Airport

Jizan, Saudi Arabia

latitude: 16-54N, longitude: 042-35E, elevation: 6 m

Current weather observation

The report was made 1 hour and 14 minutes ago, at 13:00 UTC
Wind 9 kt from the South/Southwest
Temperature 30°C
Humidity 62%
Pressure 1014 hPa
Visibility 10 km or more
Few clouds at a height of 3000 ft

METAR: OEGN 181300Z 20009KT 9999 FEW030 30/22 Q1014 NOSIG

Time: 17:14 (14:14 UTC)

Forecast

The report was made 3 hours and 14 minutes ago, at 11:00 UTC
Forecast valid from 18 at 12 UTC to 19 at 18 UTC
Wind 15 kt from the West/Southwest
Visibility 10 km or more
Few clouds at a height of 3000 ft
Scattered clouds at a height of 10000 ft
Temporary
from 18 at 12 UTC to 18 at 20 UTC
Scattered clouds at a height of 3000 ft
Few clouds at a height of 3500 ft, Cumulonimbus.
Becoming
from 18 at 20 UTC to 18 at 22 UTC
Wind 3 kt from variable directions

TAF: OEGN 181100Z 1812/1918 24015KT 9999 FEW030 SCT100 TEMPO 1812/1820 SCT030 FEW035CB BECMG 1820/1822 VRB03KT

Weather observations and forecasts of more than 4000 airports (METAR and TAF reports).

The available stations are represented by yellow and red dots on the map.

Hover mouse over dot to see the name of the station.

Then click to see weather observations and forecasts.

To change the map : click on the green buttons with a black cross to zoom in, on the green button with a dash to zoom out, or on the green arrows for adjacent maps.


METAR-TAF: